Time;durP1;ratioP1;P1;durP2;ratioP2;P2;SDS_P1;SDS_P2;PMS_P1;PMS_P2;Temp;Humidity;BMP_temperature;BMP_pressure;BME280_temperature;BME280_humidity;BME280_pressure;Samples;Min_cycle;Max_cycle;Signal;HPM_P1;HPM_P2
2021/08/21 00:01:32;;;;;;;;;;;;;;;26.57;60.77;101028.72;5087990;28;1188;-63
2021/08/21 00:03:59;;;;;;;;;;;;;;;26.56;60.90;101016.38;5104395;28;1067;-63
2021/08/21 00:06:26;;;;;;;;;;;;;;;26.56;60.55;101019.03;5107295;28;1322;-63
2021/08/21 00:08:52;;;;;;;;;;;;;;;26.57;60.94;101020.69;5108982;28;1090;-63
2021/08/21 00:11:19;;;;;;;;;;;;;;;26.57;60.56;101022.53;5109259;28;1204;-64
2021/08/21 00:13:46;;;;;;;;;;;;;;;26.58;60.52;101022.41;5108703;28;1917;-64
2021/08/21 00:16:13;;;;;;;;;;;;;;;26.57;60.83;101023.38;5109207;28;1322;-64
2021/08/21 00:18:40;;;;;;;;;;;;;;;26.59;60.76;101020.59;5109347;28;979;-65
2021/08/21 00:21:06;;;;;;;;;;;;;;;26.59;61.23;101017.91;5108002;28;1258;-64
2021/08/21 00:23:33;;;;;;;;;;;;;;;26.59;60.71;101013.44;5108662;28;1062;-64
2021/08/21 00:26:00;;;;;;;;;;;;;;;26.58;60.56;101013.53;5109280;28;1228;-63
2021/08/21 00:28:27;;;;;;;;;;;;;;;26.59;61.51;101012.56;5096769;28;1166;-61
2021/08/21 00:30:53;;;;;;;;;;;;;;;26.59;60.95;101010.75;5089030;28;1737;-60
2021/08/21 00:33:21;;;;;;;;;;;;;;;26.60;61.27;101011.56;5086863;28;1969;-63
2021/08/21 00:35:48;;;;;;;;;;;;;;;26.58;60.45;101006.38;5087129;28;1251;-64
2021/08/21 00:38:14;;;;;;;;;;;;;;;26.60;60.42;101014.25;5085505;28;1369;-63
2021/08/21 00:40:41;;;;;;;;;;;;;;;26.60;61.25;101007.09;5108468;27;1538;-63
2021/08/21 00:43:08;;;;;;;;;;;;;;;26.56;61.39;101000.34;5129265;27;1276;-63
2021/08/21 00:45:35;;;;;;;;;;;;;;;26.58;60.36;101006.38;5093653;27;1244;-63
2021/08/21 00:48:02;;;;;;;;;;;;;;;26.59;60.43;101001.88;5129316;27;1262;-63
2021/08/21 00:50:29;;;;;;;;;;;;;;;26.59;60.48;101005.41;5128647;27;1172;-64
2021/08/21 00:52:55;;;;;;;;;;;;;;;26.60;60.43;101006.22;5128587;27;1968;-64
2021/08/21 00:55:22;;;;;;;;;;;;;;;26.60;60.58;101007.09;5128385;27;1219;-64
2021/08/21 00:57:49;;;;;;;;;;;;;;;26.60;60.76;101011.56;5128582;27;1071;-64
2021/08/21 01:00:16;;;;;;;;;;;;;;;26.60;60.64;101017.78;5128924;27;1276;-63
2021/08/21 01:02:44;;;;;;;;;;;;;;;26.60;60.57;101014.25;5129193;27;1054;-64
2021/08/21 01:05:14;;;;;;;;;;;;;;;26.60;60.44;101015.09;5128665;27;1227;-64
2021/08/21 01:07:41;;;;;;;;;;;;;;;26.60;60.43;101009.75;5128703;27;1117;-64
2021/08/21 01:10:13;;;;;;;;;;;;;;;26.59;59.95;101002.75;5129039;27;1294;-64
2021/08/21 01:12:40;;;;;;;;;;;;;;;26.60;60.37;101004.41;5129072;28;1973;-63
2021/08/21 01:15:07;;;;;;;;;;;;;;;26.59;60.65;101004.56;5128675;27;1321;-63
2021/08/21 01:17:38;;;;;;;;;;;;;;;26.60;60.21;101009.75;5129350;28;1137;-63
2021/08/21 01:20:05;;;;;;;;;;;;;;;26.60;61.04;101006.22;5128828;28;833;-63
2021/08/21 01:22:32;;;;;;;;;;;;;;;26.60;60.35;101003.56;5128946;28;1164;-63
2021/08/21 01:24:59;;;;;;;;;;;;;;;26.60;60.79;101014.25;5128598;28;802;-63
2021/08/21 01:27:28;;;;;;;;;;;;;;;26.61;60.32;101010.59;5128687;27;1240;-64
2021/08/21 01:29:55;;;;;;;;;;;;;;;26.60;61.00;101012.44;5128347;28;734;-64
2021/08/21 01:32:28;;;;;;;;;;;;;;;26.61;60.56;101014.13;5128661;27;1408;-63
2021/08/21 01:34:55;;;;;;;;;;;;;;;26.60;61.38;101015.09;5122646;28;1926;-63
2021/08/21 01:37:23;;;;;;;;;;;;;;;26.61;60.42;101010.59;5107933;28;1310;-64
2021/08/21 01:39:51;;;;;;;;;;;;;;;26.57;60.88;101004.69;5089209;28;1237;-63
2021/08/21 01:42:20;;;;;;;;;;;;;;;26.61;60.78;101016.81;5089499;28;1372;-63
2021/08/21 01:44:47;;;;;;;;;;;;;;;26.61;60.68;101010.59;5108152;28;1103;-63
2021/08/21 01:47:15;;;;;;;;;;;;;;;26.61;60.79;101010.59;5107772;28;1322;-63
2021/08/21 01:49:43;;;;;;;;;;;;;;;26.63;60.28;101005.16;5107805;28;842;-63
2021/08/21 01:52:10;;;;;;;;;;;;;;;26.63;61.63;100999.81;5108061;28;1244;-63
2021/08/21 01:54:37;;;;;;;;;;;;;;;26.63;60.58;101005.16;5107609;28;1913;-63
2021/08/21 01:57:04;;;;;;;;;;;;;;;26.61;60.72;101003.44;5107470;28;1303;-63
2021/08/21 01:59:35;;;;;;;;;;;;;;;26.62;61.58;101004.28;5107892;28;845;-64
2021/08/21 02:02:04;;;;;;;;;;;;;;;26.57;60.67;100993.13;5108500;28;1263;-63
2021/08/21 02:04:30;;;;;;;;;;;;;;;26.61;60.51;100999.91;5111649;28;1131;-63
2021/08/21 02:07:17;;;;;;;;;;;;;;;26.61;60.04;101000.78;5113954;27;1256;-63
2021/08/21 02:09:44;;;;;;;;;;;;;;;26.61;61.10;100990.09;5111569;28;759;-63
2021/08/21 02:12:12;;;;;;;;;;;;;;;26.61;60.16;100995.44;5111744;28;1316;-63
2021/08/21 02:14:39;;;;;;;;;;;;;;;26.62;60.74;101001.63;5111368;28;1909;-63
2021/08/21 02:17:06;;;;;;;;;;;;;;;26.62;60.47;101001.63;5127118;27;1465;-62
2021/08/21 02:19:33;;;;;;;;;;;;;;;26.61;60.47;101000.78;5111738;28;851;-65
2021/08/21 02:22:01;;;;;;;;;;;;;;;26.61;60.55;100995.44;5092754;28;1396;-64
2021/08/21 02:24:28;;;;;;;;;;;;;;;26.61;61.48;100998.09;5111391;28;788;-63
2021/08/21 02:26:57;;;;;;;;;;;;;;;26.61;60.57;100997.25;5111051;28;1325;-64
2021/08/21 02:29:25;;;;;;;;;;;;;;;26.61;61.58;100991.91;5110810;28;790;-64
2021/08/21 02:31:55;;;;;;;;;;;;;;;26.61;62.05;100989.22;5111261;28;1224;-64
2021/08/21 02:34:26;;;;;;;;;;;;;;;26.60;61.37;100990.19;5110761;28;1983;-64
2021/08/21 02:36:52;;;;;;;;;;;;;;;26.61;60.70;100995.44;5111005;28;1264;-64
2021/08/21 02:39:19;;;;;;;;;;;;;;;26.62;62.00;100996.28;5110971;28;822;-64
2021/08/21 02:41:46;;;;;;;;;;;;;;;26.61;61.38;100995.44;5110859;28;1236;-64
2021/08/21 02:44:14;;;;;;;;;;;;;;;26.61;60.95;100992.75;5092489;28;1244;-64
2021/08/21 02:46:40;;;;;;;;;;;;;;;26.63;60.33;100999.81;5110709;28;1248;-64
2021/08/21 02:49:07;;;;;;;;;;;;;;;26.62;61.92;100996.28;5110850;28;1154;-63
2021/08/21 02:51:34;;;;;;;;;;;;;;;26.61;61.92;100995.44;5092686;28;1264;-63
2021/08/21 02:54:01;;;;;;;;;;;;;;;26.61;62.30;100994.56;5092163;28;1973;-63
2021/08/21 02:56:27;;;;;;;;;;;;;;;26.60;62.12;100993.72;5110975;28;1243;-63
2021/08/21 02:58:54;;;;;;;;;;;;;;;26.60;62.06;100991.06;5111025;28;790;-63
2021/08/21 03:01:21;;;;;;;;;;;;;;;26.61;61.33;100994.56;5109803;28;1212;-63
2021/08/21 03:03:48;;;;;;;;;;;;;;;26.59;62.17;100986.72;5111445;28;944;-64
2021/08/21 03:06:14;;;;;;;;;;;;;;;26.60;61.57;100991.06;5110529;28;1588;-63
2021/08/21 03:08:41;;;;;;;;;;;;;;;26.62;62.08;100996.28;5126266;27;815;-64
2021/08/21 03:11:08;;;;;;;;;;;;;;;26.60;62.47;100988.38;5110549;28;1334;-63
2021/08/21 03:13:34;;;;;;;;;;;;;;;26.60;62.14;100996.41;5110138;28;1909;-63
2021/08/21 03:16:01;;;;;;;;;;;;;;;26.60;61.83;100996.41;5091693;28;1336;-62
2021/08/21 03:18:28;;;;;;;;;;;;;;;26.61;61.54;101000.78;5110637;28;897;-63
2021/08/21 03:20:55;;;;;;;;;;;;;;;26.60;61.54;100993.72;5110907;28;1342;-63
2021/08/21 03:23:22;;;;;;;;;;;;;;;26.61;62.31;100991.91;5110817;28;1108;-64
2021/08/21 03:25:48;;;;;;;;;;;;;;;26.61;61.95;100990.09;5110077;28;1294;-63
2021/08/21 03:28:15;;;;;;;;;;;;;;;26.60;62.63;100991.06;5110439;28;1020;-62
2021/08/21 03:30:42;;;;;;;;;;;;;;;26.60;62.24;100987.53;5109853;28;1303;-63
2021/08/21 03:33:09;;;;;;;;;;;;;;;26.60;62.14;100992.88;5110200;28;1898;-63
2021/08/21 03:35:36;;;;;;;;;;;;;;;26.59;62.56;100989.38;5109975;28;1283;-63
2021/08/21 03:38:03;;;;;;;;;;;;;;;26.60;61.44;100991.06;5110079;28;1033;-63
2021/08/21 03:40:30;;;;;;;;;;;;;;;26.60;62.22;100988.38;5109405;28;1303;-63
2021/08/21 03:42:57;;;;;;;;;;;;;;;26.60;62.67;100988.38;5109836;28;1150;-62
2021/08/21 03:45:23;;;;;;;;;;;;;;;26.61;62.25;100990.09;5109283;28;1240;-62
2021/08/21 03:47:50;;;;;;;;;;;;;;;26.60;61.79;100983.03;5109837;28;1132;-63
2021/08/21 03:50:17;;;;;;;;;;;;;;;26.60;62.96;100985.72;5091507;28;1216;-63
2021/08/21 03:52:46;;;;;;;;;;;;;;;26.60;62.37;100983.03;5109561;28;1128;-63
2021/08/21 03:55:12;;;;;;;;;;;;;;;26.59;62.77;100986.72;5108345;28;1972;-63
2021/08/21 03:57:39;;;;;;;;;;;;;;;26.60;62.79;100988.38;5109193;28;1053;-63
2021/08/21 04:00:06;;;;;;;;;;;;;;;26.61;62.21;100987.41;5110120;28;855;-62
2021/08/21 04:02:33;;;;;;;;;;;;;;;26.61;62.00;100989.22;5109861;28;1022;-64
2021/08/21 04:05:00;;;;;;;;;;;;;;;26.61;62.35;100978.53;5109614;28;780;-64
2021/08/21 04:07:26;;;;;;;;;;;;;;;26.61;62.21;100983.88;5109647;28;1226;-64
2021/08/21 04:09:53;;;;;;;;;;;;;;;26.60;62.59;100982.19;5109448;28;791;-64
2021/08/21 04:12:40;;;;;;;;;;;;;;;26.61;62.02;100974.06;5109440;28;1222;-64
2021/08/21 04:15:07;;;;;;;;;;;;;;;26.60;62.78;100985.72;5109384;28;1971;-64
2021/08/21 04:17:33;;;;;;;;;;;;;;;26.61;62.78;100983.88;5109287;28;1059;-64
2021/08/21 04:20:03;;;;;;;;;;;;;;;26.61;62.22;100990.09;5090705;28;1233;-64
2021/08/21 04:22:31;;;;;;;;;;;;;;;26.63;61.36;100985.44;5090916;28;1287;-64
2021/08/21 04:24:57;;;;;;;;;;;;;;;26.65;60.13;100974.63;5108921;28;845;-64
2021/08/21 04:27:24;;;;;;;;;;;;;;;26.66;60.50;100976.31;5108908;28;1263;-64
2021/08/21 04:29:51;;;;;;;;;;;;;;;26.67;61.67;100982.50;5108915;28;916;-65
2021/08/21 04:32:18;;;;;;;;;;;;;;;26.66;60.62;100980.84;5108869;28;1220;-64
2021/08/21 04:34:44;;;;;;;;;;;;;;;26.66;59.91;100980.84;5108739;28;1909;-64
2021/08/21 04:37:12;;;;;;;;;;;;;;;26.67;61.54;100994.03;5108815;28;1255;-64
2021/08/21 04:39:38;;;;;;;;;;;;;;;26.67;61.67;100982.50;5108501;28;1507;-63
2021/08/21 04:42:05;;;;;;;;;;;;;;;26.66;60.72;100981.66;5108632;28;1334;-63
2021/08/21 04:44:32;;;;;;;;;;;;;;;26.67;61.87;100993.19;5108529;28;751;-63
2021/08/21 04:46:59;;;;;;;;;;;;;;;26.66;62.15;100991.53;5108602;28;1275;-63
2021/08/21 04:49:25;;;;;;;;;;;;;;;26.66;61.88;100991.53;5108192;28;1176;-64
2021/08/21 04:51:54;;;;;;;;;;;;;;;26.65;61.78;100993.34;5108035;28;1232;-62
2021/08/21 04:54:20;;;;;;;;;;;;;;;26.66;62.37;100999.53;5123200;27;1902;-62
2021/08/21 04:56:47;;;;;;;;;;;;;;;26.67;61.68;100998.53;5107776;28;1200;-62
2021/08/21 04:59:14;;;;;;;;;;;;;;;26.66;61.18;100992.34;5108285;28;833;-62
2021/08/21 05:01:40;;;;;;;;;;;;;;;26.66;60.92;100991.53;5108378;28;1364;-63
2021/08/21 05:04:07;;;;;;;;;;;;;;;26.66;61.64;100997.69;5108511;28;1066;-62
2021/08/21 05:06:34;;;;;;;;;;;;;;;26.61;62.15;100995.44;5108146;28;1220;-63
2021/08/21 05:09:00;;;;;;;;;;;;;;;26.64;61.12;100999.66;5123773;28;1594;-63
2021/08/21 05:11:27;;;;;;;;;;;;;;;26.66;62.04;100996.88;5108492;28;1220;-62
2021/08/21 05:13:54;;;;;;;;;;;;;;;26.66;62.27;100996.88;5108586;28;2001;-63
2021/08/21 05:16:21;;;;;;;;;;;;;;;26.65;61.87;101000.50;5108266;28;1521;-64
2021/08/21 05:18:53;;;;;;;;;;;;;;;26.65;62.13;101000.50;5089852;28;1270;-63
2021/08/21 05:21:31;;;;;;;;;;;;;;;26.65;62.54;100995.16;5107909;28;1546;-64
2021/08/21 05:23:58;;;;;;;;;;;;;;;26.65;62.57;100995.16;5096601;28;782;-63
2021/08/21 05:26:26;;;;;;;;;;;;;;;26.65;62.07;101005.84;5107893;28;1188;-64
2021/08/21 05:28:53;;;;;;;;;;;;;;;26.65;62.08;101003.19;5108520;28;821;-65
2021/08/21 05:31:19;;;;;;;;;;;;;;;26.66;62.61;101012.91;5107604;28;1494;-65
2021/08/21 05:33:46;;;;;;;;;;;;;;;26.64;61.92;101018.34;5108063;28;1910;-64
2021/08/21 05:36:13;;;;;;;;;;;;;;;26.66;62.31;101018.25;5107180;28;1204;-64
2021/08/21 05:38:40;;;;;;;;;;;;;;;26.66;61.86;101023.59;5110496;28;791;-64
2021/08/21 05:41:07;;;;;;;;;;;;;;;26.66;62.38;101015.56;5093604;28;1323;-64
2021/08/21 05:43:34;;;;;;;;;;;;;;;26.65;62.39;101024.56;5112168;28;842;-64
2021/08/21 05:46:01;;;;;;;;;;;;;;;26.66;62.43;101020.91;5111543;28;1240;-64
2021/08/21 05:48:29;;;;;;;;;;;;;;;26.66;61.95;101029.75;5111891;28;845;-64
2021/08/21 05:50:55;;;;;;;;;;;;;;;26.67;62.17;101036.78;5111571;28;1240;-63
2021/08/21 05:53:22;;;;;;;;;;;;;;;26.67;61.92;101030.59;5112131;28;931;-64
2021/08/21 05:55:49;;;;;;;;;;;;;;;26.67;62.06;101033.28;5111917;28;1913;-63
2021/08/21 05:58:15;;;;;;;;;;;;;;;26.67;62.15;101035.94;5112414;28;1214;-62
2021/08/21 06:00:42;;;;;;;;;;;;;;;26.66;62.20;101036.94;5111665;28;1220;-63
2021/08/21 06:03:09;;;;;;;;;;;;;;;26.67;62.17;101035.94;5111621;28;1316;-63
2021/08/21 06:05:38;;;;;;;;;;;;;;;26.67;61.85;101038.63;5093299;28;1260;-63
2021/08/21 06:08:05;;;;;;;;;;;;;;;26.67;61.76;101050.16;5112066;28;889;-63
2021/08/21 06:10:32;;;;;;;;;;;;;;;26.67;62.21;101052.84;5111683;28;1157;-63
2021/08/21 06:12:58;;;;;;;;;;;;;;;26.66;62.11;101056.47;5111791;28;1007;-63
2021/08/21 06:15:25;;;;;;;;;;;;;;;26.66;62.04;101055.66;5111700;28;1980;-63
2021/08/21 06:18:10;;;;;;;;;;;;;;;26.66;62.62;101056.47;5111260;28;990;-63
2021/08/21 06:20:37;;;;;;;;;;;;;;;26.66;62.33;101052.97;5092937;28;1527;-63
2021/08/21 06:23:04;;;;;;;;;;;;;;;26.66;61.84;101055.66;5126774;27;1278;-63
2021/08/21 06:25:30;;;;;;;;;;;;;;;26.66;62.31;101055.66;5092153;28;1307;-63
2021/08/21 06:27:58;;;;;;;;;;;;;;;26.66;61.24;101061.00;5126148;27;1024;-63
2021/08/21 06:30:24;;;;;;;;;;;;;;;26.68;62.25;101061.69;5109914;28;1279;-63
2021/08/21 06:32:51;;;;;;;;;;;;;;;26.68;62.37;101064.38;5091411;28;1132;-63
2021/08/21 06:35:20;;;;;;;;;;;;;;;26.68;62.99;101075.06;5109079;28;1981;-64
2021/08/21 06:37:47;;;;;;;;;;;;;;;26.67;61.56;101073.34;5110376;28;1039;-65
2021/08/21 06:40:14;;;;;;;;;;;;;;;26.69;62.44;101076.75;5110003;28;1493;-65
2021/08/21 06:42:41;;;;;;;;;;;;;;;26.69;61.14;101076.75;5110484;28;1148;-64
2021/08/21 06:45:07;;;;;;;;;;;;;;;26.70;62.42;101079.28;5111284;28;767;-64
2021/08/21 06:47:35;;;;;;;;;;;;;;;26.71;63.13;101080.13;5111462;28;890;-64
2021/08/21 06:50:05;;;;;;;;;;;;;;;26.73;61.99;101080.84;5109959;28;799;-63
2021/08/21 06:52:32;;;;;;;;;;;;;;;26.74;63.04;101080.72;5107964;28;1262;-64
2021/08/21 06:54:59;;;;;;;;;;;;;;;26.73;62.50;101076.34;5110466;28;1905;-64
2021/08/21 06:57:25;;;;;;;;;;;;;;;26.72;61.72;101081.84;5110733;28;1333;-64
2021/08/21 06:59:52;;;;;;;;;;;;;;;26.75;62.10;101082.41;5092292;28;801;-64
2021/08/21 07:02:19;;;;;;;;;;;;;;;26.75;61.54;101085.06;5110316;27;1318;-62
2021/08/21 07:04:46;;;;;;;;;;;;;;;26.76;61.55;101088.59;5110409;28;1128;-66
2021/08/21 07:07:16;;;;;;;;;;;;;;;26.75;61.31;101082.41;5110181;28;1409;-65
2021/08/21 07:09:43;;;;;;;;;;;;;;;26.77;61.83;101090.31;5110140;28;880;-63
2021/08/21 07:12:11;;;;;;;;;;;;;;;26.76;61.12;101084.09;5143052;27;1316;-62
2021/08/21 07:14:37;;;;;;;;;;;;;;;26.78;62.22;101089.34;5143379;27;1909;-63
2021/08/21 07:17:04;;;;;;;;;;;;;;;26.77;61.84;101084.97;5110201;28;1239;-63
2021/08/21 07:19:31;;;;;;;;;;;;;;;26.78;61.26;101094.69;5110207;28;1067;-65
2021/08/21 07:21:58;;;;;;;;;;;;;;;26.79;62.84;101091.00;5109654;28;1227;-63
2021/08/21 07:24:24;;;;;;;;;;;;;;;26.74;63.33;101090.56;5110490;28;1087;-62
2021/08/21 07:26:51;;;;;;;;;;;;;;;26.66;63.57;101093.06;5109598;28;1659;-61
2021/08/21 07:29:18;;;;;;;;;;;;;;;26.63;63.73;101094.13;5091711;28;1275;-61
2021/08/21 07:31:45;;;;;;;;;;;;;;;26.63;63.90;101093.31;5110077;28;1208;-61
2021/08/21 07:34:12;;;;;;;;;;;;;;;26.58;63.54;101094.53;5110119;28;1963;-59
2021/08/21 07:36:39;;;;;;;;;;;;;;;26.59;63.14;101093.56;5109447;28;1233;-59
2021/08/21 07:39:05;;;;;;;;;;;;;;;26.56;63.67;101099.19;5089636;28;1195;-61
2021/08/21 07:41:34;;;;;;;;;;;;;;;26.58;63.71;101097.22;5109904;27;1515;-62
2021/08/21 07:44:01;;;;;;;;;;;;;;;26.57;63.67;101102.66;5089481;28;868;-61
2021/08/21 07:46:29;;;;;;;;;;;;;;;26.59;63.55;101098.91;5089318;28;1177;-62
2021/08/21 07:48:55;;;;;;;;;;;;;;;26.59;63.47;101096.25;5089855;28;836;-60
2021/08/21 07:51:22;;;;;;;;;;;;;;;26.59;63.58;101090.91;5089697;28;1228;-59
2021/08/21 07:53:49;;;;;;;;;;;;;;;26.63;63.74;101087.97;5089348;28;852;-62
2021/08/21 07:56:15;;;;;;;;;;;;;;;26.63;63.39;101087.97;5089040;28;1973;-63
2021/08/21 07:58:42;;;;;;;;;;;;;;;26.65;63.49;101102.88;5089109;28;891;-63
2021/08/21 08:01:09;;;;;;;;;;;;;;;26.61;63.69;101090.75;5088050;28;1255;-62
2021/08/21 08:03:36;;;;;;;;;;;;;;;26.63;63.76;101096.00;5087196;28;1297;-61
2021/08/21 08:06:03;;;;;;;;;;;;;;;26.66;63.35;101098.41;5088173;28;1216;-59
2021/08/21 08:08:29;;;;;;;;;;;;;;;26.68;63.38;101096.44;5088649;28;820;-60
2021/08/21 08:10:56;;;;;;;;;;;;;;;26.67;63.49;101102.75;5088244;28;1232;-61
2021/08/21 08:13:23;;;;;;;;;;;;;;;26.65;63.26;101102.03;5089010;28;1643;-60
2021/08/21 08:15:50;;;;;;;;;;;;;;;26.66;63.50;101104.56;5088508;28;1913;-62
2021/08/21 08:18:17;;;;;;;;;;;;;;;26.72;63.66;101104.03;5090555;28;1719;-62
2021/08/21 08:20:44;;;;;;;;;;;;;;;26.71;63.78;101106.88;5088961;28;1849;-61
2021/08/21 08:23:30;;;;;;;;;;;;;;;26.69;63.34;101098.13;5089257;28;1781;-63
2021/08/21 08:25:57;;;;;;;;;;;;;;;26.67;63.51;101100.94;5087345;28;1844;-63
2021/08/21 08:28:25;;;;;;;;;;;;;;;26.67;63.40;101100.06;5089110;28;1733;-63
2021/08/21 08:30:53;;;;;;;;;;;;;;;26.69;63.42;101100.81;5089067;28;1683;-64
2021/08/21 08:33:22;;;;;;;;;;;;;;;26.73;63.21;101107.56;5090741;28;2009;-64
2021/08/21 08:35:51;;;;;;;;;;;;;;;26.73;63.50;101116.44;5091112;28;2022;-67
2021/08/21 08:38:19;;;;;;;;;;;;;;;26.79;63.84;101118.59;5086992;28;1838;-64
2021/08/21 08:40:46;;;;;;;;;;;;;;;26.81;63.52;101115.84;5097079;28;1554;-64
2021/08/21 08:43:12;;;;;;;;;;;;;;;26.79;63.47;101118.59;5106208;28;1497;-62
2021/08/21 08:45:41;;;;;;;;;;;;;;;26.76;63.86;101121.53;5105877;28;1223;-63
2021/08/21 08:48:09;;;;;;;;;;;;;;;26.76;63.23;101123.34;5087300;28;1297;-63
2021/08/21 08:50:56;;;;;;;;;;;;;;;26.76;62.40;101123.34;5106821;28;1287;-67
2021/08/21 08:53:42;;;;;;;;;;;;;;;26.88;63.37;101125.84;5106840;28;1347;-62
2021/08/21 08:56:20;;;;;;;;;;;;;;;26.85;62.92;101133.28;5108120;28;1987;-60
2021/08/21 08:58:49;;;;;;;;;;;;;;;26.77;63.25;101127.72;5089249;28;1100;-60
2021/08/21 09:01:17;;;;;;;;;;;;;;;26.76;62.62;101131.34;5104905;28;1616;-62
2021/08/21 09:04:20;;;;;;;;;;;;;;;26.76;63.62;101134.03;5108653;28;1757;-61
2021/08/21 09:06:47;;;;;;;;;;;;;;;26.74;63.21;101127.97;5089643;28;1310;-61
2021/08/21 09:09:18;;;;;;;;;;;;;;;26.75;62.95;101135.03;5090209;28;1777;-59
2021/08/21 09:11:50;;;;;;;;;;;;;;;26.75;63.07;101135.84;5122758;27;1228;-60
2021/08/21 09:14:18;;;;;;;;;;;;;;;26.76;63.10;101134.03;5107812;28;818;-60
2021/08/21 09:16:47;;;;;;;;;;;;;;;26.76;62.91;101136.72;5122916;28;1981;-60
2021/08/21 09:19:24;;;;;;;;;;;;;;;26.75;62.94;101135.84;5107950;28;802;-60
2021/08/21 09:22:08;;;;;;;;;;;;;;;26.76;62.99;101136.72;5108234;28;1260;-60
2021/08/21 09:24:37;;;;;;;;;;;;;;;26.76;62.56;101136.72;5108108;28;841;-60
2021/08/21 09:27:18;;;;;;;;;;;;;;;26.75;62.94;101141.19;5088929;28;1520;-61
2021/08/21 09:30:03;;;;;;;;;;;;;;;26.75;62.93;101135.84;5088804;28;1616;-60
2021/08/21 09:32:31;;;;;;;;;;;;;;;26.77;62.99;101138.41;5107629;28;1248;-61
2021/08/21 09:35:07;;;;;;;;;;;;;;;26.76;62.65;101136.72;5088989;28;1917;-60
2021/08/21 09:37:51;;;;;;;;;;;;;;;26.75;62.88;101135.84;5108053;28;1132;-60
2021/08/21 09:40:28;;;;;;;;;;;;;;;26.76;62.83;101136.72;5106266;28;1343;-61
2021/08/21 09:42:56;;;;;;;;;;;;;;;26.75;62.89;101132.34;5108031;28;1176;-60
2021/08/21 09:45:25;;;;;;;;;;;;;;;26.75;62.79;101143.03;5107469;28;1220;-60
2021/08/21 09:47:59;;;;;;;;;;;;;;;26.77;63.09;101138.41;5089229;28;1244;-60
2021/08/21 09:50:34;;;;;;;;;;;;;;;26.76;62.96;101136.72;5107308;28;1385;-61
2021/08/21 09:53:03;;;;;;;;;;;;;;;26.75;62.75;101135.03;5107431;28;905;-60
2021/08/21 09:55:31;;;;;;;;;;;;;;;26.76;62.77;101137.56;5107510;28;1913;-60
2021/08/21 09:57:59;;;;;;;;;;;;;;;26.78;61.89;101135.59;5107277;28;907;-61
2021/08/21 10:00:27;;;;;;;;;;;;;;;26.79;62.84;101136.44;5088219;28;1256;-60
2021/08/21 10:02:57;;;;;;;;;;;;;;;26.78;62.14;101135.59;5089063;28;1452;-60
2021/08/21 10:05:26;;;;;;;;;;;;;;;26.80;63.22;101140.84;5107000;28;1185;-60
2021/08/21 10:08:06;;;;;;;;;;;;;;;26.79;62.75;101136.44;5107484;28;1070;-61
2021/08/21 10:10:36;;;;;;;;;;;;;;;26.80;63.06;101141.72;5107197;28;1188;-60
2021/08/21 10:13:10;;;;;;;;;;;;;;;26.80;62.09;101138.19;5107403;28;1138;-60
2021/08/21 10:15:40;;;;;;;;;;;;;;;26.84;63.41;101132.44;5106826;28;1973;-60
2021/08/21 10:18:08;;;;;;;;;;;;;;;26.83;63.40;101137.94;5107346;28;1220;-60
2021/08/21 10:20:37;;;;;;;;;;;;;;;26.84;63.63;101134.28;5106985;28;1216;-60
2021/08/21 10:23:08;;;;;;;;;;;;;;;26.82;63.95;101137.06;5089292;28;1157;-61
2021/08/21 10:25:38;;;;;;;;;;;;;;;26.83;62.10;101140.59;5111066;28;1374;-60
2021/08/21 10:28:11;;;;;;;;;;;;;;;26.85;63.64;101142.16;5111087;28;1069;-60
2021/08/21 10:30:43;;;;;;;;;;;;;;;26.80;63.00;101135.50;5110867;28;1251;-60
2021/08/21 10:33:11;;;;;;;;;;;;;;;26.83;63.42;101143.28;5111501;28;1275;-61
2021/08/21 10:35:47;;;;;;;;;;;;;;;26.78;64.02;101140.13;5107118;28;1979;-59
2021/08/21 10:38:30;;;;;;;;;;;;;;;26.65;62.43;101131.44;5111260;28;1244;-59
2021/08/21 10:41:21;;;;;;;;;;;;;;;26.50;61.66;101128.22;5103532;28;1646;-59
2021/08/21 10:43:51;;;;;;;;;;;;;;;26.44;60.45;101126.91;5111069;28;825;-58
2021/08/21 10:46:29;;;;;;;;;;;;;;;26.38;59.63;101122.09;5110294;28;1326;-59
2021/08/21 10:48:57;;;;;;;;;;;;;;;26.30;59.47;101129.03;5110737;28;833;-58
2021/08/21 10:51:35;;;;;;;;;;;;;;;26.25;58.98;101126.75;5110142;28;1275;-59
2021/08/21 10:54:22;;;;;;;;;;;;;;;26.23;58.89;101122.50;5110319;28;896;-60
2021/08/21 10:56:50;;;;;;;;;;;;;;;26.16;58.67;101122.16;5110381;28;1905;-58
2021/08/21 10:59:36;;;;;;;;;;;;;;;26.12;58.75;101122.50;5110240;28;1054;-61
2021/08/21 11:02:22;;;;;;;;;;;;;;;26.13;58.76;101126.88;5108830;28;1349;-58
2021/08/21 11:04:50;;;;;;;;;;;;;;;26.11;58.13;101127.00;5105915;28;1156;-61
2021/08/21 11:07:32;;;;;;;;;;;;;;;26.06;58.44;101126.53;5110199;28;1322;-60
2021/08/21 11:10:15;;;;;;;;;;;;;;;26.08;57.72;101119.25;5094675;28;1302;-60
2021/08/21 11:12:45;;;;;;;;;;;;;;;26.06;57.95;101115.84;5110484;28;1213;-61
2021/08/21 11:15:17;;;;;;;;;;;;;;;26.05;57.69;101114.16;5107499;28;1905;-59
2021/08/21 11:17:45;;;;;;;;;;;;;;;26.00;57.72;101114.53;5110252;28;1045;-61
2021/08/21 11:20:32;;;;;;;;;;;;;;;25.98;57.36;101110.28;5108663;28;1560;-61
2021/08/21 11:23:05;;;;;;;;;;;;;;;25.98;57.41;101111.16;5110312;28;946;-60
2021/08/21 11:25:42;;;;;;;;;;;;;;;25.93;57.45;101116.00;5108463;28;1302;-59
2021/08/21 11:28:20;;;;;;;;;;;;;;;25.96;56.87;101115.75;5110460;28;1265;-61
2021/08/21 11:31:07;;;;;;;;;;;;;;;25.96;56.66;101106.91;5109593;27;1373;-59
2021/08/21 11:33:43;;;;;;;;;;;;;;;25.98;56.71;101119.16;5111156;27;1240;-60
2021/08/21 11:36:22;;;;;;;;;;;;;;;25.94;56.21;101115.03;5111512;27;1984;-60
2021/08/21 11:38:50;;;;;;;;;;;;;;;25.94;56.42;101114.19;5108662;28;821;-60
2021/08/21 11:41:17;;;;;;;;;;;;;;;25.91;56.05;101109.09;5106783;28;1497;-60
2021/08/21 11:43:47;;;;;;;;;;;;;;;26.09;56.70;101107.56;5106155;28;901;-64
2021/08/21 11:46:24;;;;;;;;;;;;;;;26.24;57.42;101114.34;5105123;28;1536;-65
2021/08/21 11:49:04;;;;;;;;;;;;;;;26.33;58.03;101112.75;5091347;28;1178;-58
2021/08/21 11:51:37;;;;;;;;;;;;;;;26.39;58.32;101115.75;5090293;28;1439;-56
2021/08/21 11:54:08;;;;;;;;;;;;;;;26.47;58.78;101110.63;5091093;28;1104;-57
2021/08/21 11:56:35;;;;;;;;;;;;;;;26.51;59.28;101117.41;5109135;28;1990;-58
2021/08/21 11:59:06;;;;;;;;;;;;;;;26.56;60.28;101117.88;5122363;27;943;-59
2021/08/21 12:01:35;;;;;;;;;;;;;;;26.62;60.43;101111.16;5124776;27;1397;-58
2021/08/21 12:06:32;;;;;;;;;;;;;;;26.68;60.80;101120.47;5109424;27;1271;-58
2021/08/21 12:09:08;;;;;;;;;;;;;;;26.56;60.73;101115.22;5107849;28;1216;-57
2021/08/21 12:11:35;;;;;;;;;;;;;;;26.36;59.71;101108.00;5106127;28;1359;-60
2021/08/21 12:14:02;;;;;;;;;;;;;;;26.32;59.06;101116.41;5107794;28;1257;-59
2021/08/21 12:16:32;;;;;;;;;;;;;;;26.21;58.33;101111.94;5105926;28;1984;-61
2021/08/21 12:18:59;;;;;;;;;;;;;;;26.20;57.35;101104.06;5107619;28;1279;-59
2021/08/21 12:21:27;;;;;;;;;;;;;;;26.09;57.34;101107.56;5107126;28;1237;-61
2021/08/21 12:23:54;;;;;;;;;;;;;;;26.01;57.24;101107.38;5086649;28;1414;-61
2021/08/21 12:26:32;;;;;;;;;;;;;;;26.00;57.32;101106.53;5089400;28;1429;-62
2021/08/21 12:29:00;;;;;;;;;;;;;;;26.12;57.44;101103.81;5087964;28;1432;-60
2021/08/21 12:31:37;;;;;;;;;;;;;;;26.11;56.71;101102.13;5107839;28;1350;-58
2021/08/21 12:34:05;;;;;;;;;;;;;;;26.06;56.63;101102.50;5106079;28;1291;-55
2021/08/21 12:36:39;;;;;;;;;;;;;;;26.06;56.49;101102.50;5106696;28;1921;-57
2021/08/21 12:39:06;;;;;;;;;;;;;;;25.99;56.72;101107.47;5107331;28;1278;-58
2021/08/21 12:41:46;;;;;;;;;;;;;;;26.01;57.11;101105.56;5106586;28;1631;-59
2021/08/21 12:44:14;;;;;;;;;;;;;;;26.10;58.07;101106.63;5104499;28;1252;-59
2021/08/21 12:46:53;;;;;;;;;;;;;;;26.13;58.57;101111.69;5106386;28;1348;-67
2021/08/21 12:49:49;;;;;;;;;;;;;;;26.17;58.70;101112.34;5087637;28;1376;-63
2021/08/21 12:52:20;;;;;;;;;;;;;;;26.17;59.35;101113.19;5079826;28;1339;-64
2021/08/21 12:54:56;;;;;;;;;;;;;;;26.16;59.03;101106.16;5119074;27;1657;-61
2021/08/21 12:57:23;;;;;;;;;;;;;;;26.19;58.71;101105.03;5106262;28;1909;-64
2021/08/21 13:00:05;;;;;;;;;;;;;;;26.17;58.54;101118.53;5106534;28;1264;-61
2021/08/21 13:02:53;;;;;;;;;;;;;;;26.04;58.49;101120.47;5104571;28;1327;-62